Rechercher aéroport 
image banner adimage banner adimage banner ad
image banner ad

KVVS - Joseph A Hardy Connellsville

Situé à Connellsville, United States

ICAO - VVS, IATA -

Données fournies par Airmate  

Information générale

Coordonnées: N39°57'33" W79°39'27"
Élévation : 1264 feet MSL.
Variation magnétique : -08° East
Voir autres Aéroports à Pennsylvania

Données opérationnelles

Special qualification required
Heure actuelle UTC:
Heure actuelle locale:
Météo à : KLBE - Arnold Palmer Rgnl ( 41 km )
METAR: KLBE 152147Z 32007KT 20SM SCT042 22/14 A2991
TAF: KLBE 152100Z 1521/1618 32010KT P6SM BKN040 FM160000 33008KT P6SM SCT120 FM160300 32005KT P6SM SKC
Voir NOTAMs / SUP AIP / TFR affectant cet aéroport [VIEW]
Fréquences de communication: [VIEW]

Pistes:

Identifiant RWYQFULongueur (ft)Largeur (ft)SurfaceLDA (ft)
0541°3833100ASPH
23221°3833100ASPH
14131°2404100ASPH
32311°2404100ASPH

Coordonnées de l'aéroport

Adresse: Connellsville United States

Vue satellite de KVVS